Terminal Aerodrome Forecast
Issued by NWS

Home | Current Version | Previous Version | Text Only | Print | Product List | Glossary On
Versions: 1 2 3 4 5 6 7 8 9 10 11 12 13 14 15 16 17 18
000
FTUS41 KILN 211700
TAFLCK
TAF
KLCK 211740Z 2118/2218 21005KT 5SM -SHRA BR SCT050 OVC080
      TEMPO 2118/2119 2SM -TSRA BR BKN040CB
     FM212000 22007KT P6SM SCT025 BKN080
     FM220000 21004KT P6SM BKN080
     FM220400 21003KT P6SM -SHRA VCTS BKN050CB
     FM220800 VRB02KT P6SM VCTS BKN040CB
     FM221200 20004KT P6SM BKN040=

USA.gov is the U.S. government's official web portal to all federal, state and local government web resources and services.